createdAt,value
2022-10-17T00:03:47.305Z,100842.80
2022-10-17T00:08:49.942Z,100845.65
2022-10-17T00:13:54.793Z,100844.76
2022-10-17T00:18:57.200Z,100851.19
2022-10-17T00:24:00.492Z,100852.92
2022-10-17T00:29:02.997Z,100857.36
2022-10-17T00:34:05.415Z,100857.13
2022-10-17T00:39:07.792Z,100858.45
2022-10-17T00:44:13.089Z,100856.09
2022-10-17T00:49:15.454Z,100859.48
2022-10-17T00:54:20.617Z,100855.39
2022-10-17T00:59:23.687Z,100869.80
2022-10-17T01:04:26.215Z,100859.42
2022-10-17T01:09:28.844Z,100856.51
2022-10-17T01:14:34.180Z,100854.64
2022-10-17T01:19:39.505Z,100858.39
2022-10-17T01:24:44.813Z,100847.70
2022-10-17T01:29:52.742Z,100858.30
2022-10-17T01:34:58.156Z,100866.27
2022-10-17T01:40:03.461Z,100871.50
2022-10-17T01:45:06.969Z,100873.21
2022-10-17T01:50:15.142Z,100887.46
2022-10-17T01:55:20.389Z,100899.96
2022-10-17T02:00:23.681Z,100907.10
2022-10-17T02:05:32.003Z,100922.06
2022-10-17T02:10:41.084Z,100924.13
2022-10-17T02:15:46.453Z,100925.33
2022-10-17T02:20:48.809Z,100931.42
2022-10-17T02:25:55.589Z,100930.52
2022-10-17T02:31:00.644Z,100935.27
2022-10-17T02:36:06.301Z,100939.70
2022-10-17T02:41:10.970Z,100946.72
2022-10-17T02:46:21.069Z,100940.13
2022-10-17T02:51:29.614Z,100949.58
2022-10-17T02:56:39.798Z,100953.54
2022-10-17T03:01:42.381Z,100960.95
2022-10-17T03:06:46.154Z,100968.41
2022-10-17T03:11:48.524Z,100970.53
2022-10-17T03:16:50.944Z,100976.06
2022-10-17T03:21:53.540Z,100983.48
2022-10-17T03:26:55.954Z,100985.00
2022-10-17T03:31:58.503Z,100977.30
2022-10-17T03:37:00.947Z,100983.55
2022-10-17T03:42:03.405Z,100974.08
2022-10-17T03:47:08.157Z,100982.09
2022-10-17T03:52:13.595Z,100994.23
2022-10-17T03:57:15.972Z,100998.51
2022-10-17T04:02:18.378Z,101000.80
2022-10-17T04:07:20.871Z,100998.57
2022-10-17T04:12:23.241Z,100995.17
2022-10-17T04:17:25.684Z,101006.90
2022-10-17T04:22:28.391Z,101018.12
2022-10-17T04:27:30.939Z,101029.33
2022-10-17T04:32:36.498Z,101028.48
2022-10-17T04:37:38.853Z,101025.73
2022-10-17T04:42:41.271Z,101019.52
2022-10-17T04:47:43.794Z,101028.33
2022-10-17T04:52:46.184Z,101041.42
2022-10-17T04:57:48.551Z,101052.23
2022-10-17T05:02:51.100Z,101050.75
2022-10-17T05:07:53.493Z,101049.23
2022-10-17T05:12:55.889Z,101049.65
2022-10-17T05:17:58.339Z,101042.79
2022-10-17T05:23:01.023Z,101051.05
2022-10-17T05:28:03.545Z,101054.64
2022-10-17T05:33:05.956Z,101052.02
2022-10-17T05:38:08.356Z,101056.05
2022-10-17T05:43:10.780Z,101059.38
2022-10-17T05:48:14.003Z,101058.14
2022-10-17T05:53:20.080Z,101060.54
2022-10-17T05:58:45.441Z,101067.64
2022-10-17T06:03:46.670Z,101069.29
2022-10-17T06:08:49.193Z,101086.71
2022-10-17T06:13:51.599Z,101089.84
2022-10-17T06:18:54.020Z,101090.48
2022-10-17T06:23:56.474Z,101107.36
2022-10-17T06:28:58.950Z,101108.06
2022-10-17T06:34:01.409Z,101102.70
2022-10-17T06:39:03.903Z,101105.35
2022-10-17T06:44:10.920Z,101108.73
2022-10-17T06:49:13.428Z,101108.07
2022-10-17T06:54:15.835Z,101122.00
2022-10-17T06:59:18.277Z,101131.91
2022-10-17T07:04:20.686Z,101133.56
2022-10-17T07:09:24.157Z,101144.15
2022-10-17T07:14:31.891Z,101152.70
2022-10-17T07:19:34.366Z,101151.17
2022-10-17T07:24:37.055Z,101155.56
2022-10-17T07:29:39.505Z,101155.20
2022-10-17T07:34:41.960Z,101158.37
2022-10-17T07:39:44.328Z,101161.05
2022-10-17T07:44:47.521Z,101158.45
2022-10-17T07:49:50.090Z,101155.39
2022-10-17T07:54:52.574Z,101164.58
2022-10-17T07:59:55.131Z,101171.62
2022-10-17T08:04:57.562Z,101169.86
2022-10-17T08:10:01.254Z,101175.96
2022-10-17T08:15:05.326Z,101173.84
2022-10-17T08:20:08.832Z,101174.67
2022-10-17T08:25:12.068Z,101162.96
2022-10-17T08:30:15.409Z,101162.25
2022-10-17T08:35:18.009Z,101160.52
2022-10-17T08:40:25.963Z,101156.37
2022-10-17T08:45:35.659Z,101171.48
2022-10-17T08:50:42.430Z,101174.48
2022-10-17T08:55:48.791Z,101168.21
2022-10-17T09:00:59.812Z,101160.60
2022-10-17T09:06:11.017Z,101153.80
2022-10-17T09:11:20.272Z,101154.38
2022-10-17T09:16:25.958Z,101149.90
2022-10-17T09:21:35.530Z,101152.90
2022-10-17T09:26:39.421Z,101158.13
2022-10-17T09:31:45.609Z,101147.70
2022-10-17T09:36:49.145Z,101146.59
2022-10-17T09:41:53.295Z,101149.19
2022-10-17T09:47:01.388Z,101154.64
2022-10-17T09:52:05.375Z,101152.59
2022-10-17T09:57:08.866Z,101148.23
2022-10-17T10:02:12.209Z,101154.27
2022-10-17T10:07:14.610Z,101149.88
2022-10-17T10:12:18.684Z,101147.73
2022-10-17T10:17:24.027Z,101139.27
2022-10-17T10:22:26.523Z,101127.88
2022-10-17T10:27:29.492Z,101122.34
2022-10-17T10:32:33.748Z,101116.33
2022-10-17T10:37:37.085Z,101114.28
2022-10-17T10:42:40.307Z,101113.77
2022-10-17T10:47:45.739Z,101114.52
2022-10-17T10:52:55.173Z,101106.34
2022-10-17T10:57:59.958Z,101103.64
2022-10-17T11:03:07.549Z,101108.98
2022-10-17T11:08:18.275Z,101106.15
2022-10-17T11:13:23.654Z,101103.64
2022-10-17T11:18:28.943Z,101102.25
2022-10-17T11:23:38.487Z,101095.61
2022-10-17T11:28:41.333Z,101102.73
2022-10-17T11:33:46.081Z,101093.90
2022-10-17T11:38:53.299Z,101091.48
2022-10-17T11:43:59.581Z,101089.23
2022-10-17T11:49:06.483Z,101081.02
2022-10-17T11:54:13.723Z,101078.46
2022-10-17T11:59:19.112Z,101069.30
2022-10-17T12:04:22.713Z,101061.90
2022-10-17T12:09:28.112Z,101058.77
2022-10-17T12:14:33.470Z,101056.24
2022-10-17T12:19:37.340Z,101049.83
2022-10-17T12:24:42.661Z,101042.09
2022-10-17T12:29:45.189Z,101035.45
2022-10-17T12:34:50.551Z,101033.52
2022-10-17T12:39:53.074Z,101031.36
2022-10-17T12:44:55.486Z,101032.00
2022-10-17T12:49:57.909Z,101028.56
2022-10-17T12:55:14.958Z,101029.42
2022-10-17T13:00:18.334Z,101029.45
2022-10-17T13:05:23.696Z,101025.70
2022-10-17T13:10:28.442Z,101027.98
2022-10-17T13:15:31.092Z,101021.61
2022-10-17T13:20:33.586Z,101025.38
2022-10-17T13:25:38.905Z,101025.59
2022-10-17T13:30:45.585Z,101021.07
2022-10-17T13:36:00.010Z,101021.27
2022-10-17T13:41:30.099Z,101023.08
2022-10-17T13:46:37.406Z,101002.94
2022-10-17T13:51:44.917Z,100987.38
2022-10-17T14:01:57.663Z,100963.77
2022-10-17T14:07:00.049Z,100969.59
2022-10-17T14:12:16.528Z,100956.80
2022-10-17T14:17:23.647Z,100943.83
2022-10-17T14:22:27.469Z,100946.02
2022-10-17T14:27:31.844Z,100939.68
2022-10-17T14:32:36.094Z,100944.00
2022-10-17T14:37:43.857Z,100946.06
2022-10-17T14:42:46.869Z,100944.84
2022-10-17T14:47:51.634Z,100946.58
2022-10-17T14:52:57.109Z,100945.06
2022-10-17T14:57:59.589Z,100942.98
2022-10-17T15:03:02.047Z,100933.78
2022-10-17T15:08:05.865Z,100926.95
2022-10-17T15:13:27.211Z,100930.82
2022-10-17T15:18:29.857Z,100937.89
2022-10-17T15:23:32.333Z,100929.10
2022-10-17T15:28:34.822Z,100919.83
2022-10-17T15:33:37.262Z,100919.46
2022-10-17T15:38:39.730Z,100926.99
2022-10-17T15:43:42.162Z,100923.04
2022-10-17T15:48:45.102Z,100931.39
2022-10-17T15:53:47.691Z,100924.66
2022-10-17T15:58:50.809Z,100924.05
2022-10-17T16:03:53.811Z,100921.48
2022-10-17T16:08:56.280Z,100920.45
2022-10-17T16:14:02.320Z,100920.30
2022-10-17T16:19:04.777Z,100917.45
2022-10-17T16:24:09.652Z,100917.67
2022-10-17T16:29:12.158Z,100918.30
2022-10-17T16:34:15.185Z,100910.14
2022-10-17T16:39:17.760Z,100907.46
2022-10-17T16:44:20.393Z,100898.92
2022-10-17T16:49:22.802Z,100899.89
2022-10-17T16:54:25.270Z,100896.13
2022-10-17T16:59:27.942Z,100891.15
2022-10-17T17:04:30.341Z,100886.44
2022-10-17T17:09:32.749Z,100888.38
2022-10-17T17:14:35.224Z,100885.32
2022-10-17T17:19:37.665Z,100879.17
2022-10-17T17:24:40.178Z,100866.26
2022-10-17T17:29:42.592Z,100859.77
2022-10-17T17:34:44.989Z,100861.52
2022-10-17T17:39:47.427Z,100861.36
2022-10-17T17:44:49.889Z,100857.30
2022-10-17T17:49:52.278Z,100857.29
2022-10-17T17:54:54.865Z,100853.41
2022-10-17T17:59:57.340Z,100851.66
2022-10-17T18:04:59.719Z,100854.13
2022-10-17T18:10:02.282Z,100849.31
2022-10-17T18:15:05.637Z,100830.33
2022-10-17T18:20:08.438Z,100835.10
2022-10-17T18:25:11.042Z,100834.00
2022-10-17T18:30:14.094Z,100832.13
2022-10-17T18:35:16.476Z,100832.31
2022-10-17T18:40:18.867Z,100825.91
2022-10-17T18:45:21.478Z,100823.90
2022-10-17T18:50:24.634Z,100825.40
2022-10-17T18:55:27.194Z,100822.02
2022-10-17T19:00:30.546Z,100820.69
2022-10-17T19:05:33.974Z,100821.02
2022-10-17T19:10:37.543Z,100803.45
2022-10-17T19:15:40.034Z,100798.04
2022-10-17T19:20:42.482Z,100794.09
2022-10-17T19:25:44.870Z,100787.92
2022-10-17T19:30:47.222Z,100779.11
2022-10-17T19:35:52.537Z,100780.34
2022-10-17T19:40:55.047Z,100782.88
2022-10-17T19:45:59.197Z,100787.12
2022-10-17T19:51:01.597Z,100794.25
2022-10-17T19:56:04.594Z,100795.76
2022-10-17T20:01:07.038Z,100789.11
2022-10-17T20:06:10.009Z,100776.05
2022-10-17T20:11:13.529Z,100773.39
2022-10-17T20:16:17.598Z,100772.61
2022-10-17T20:21:22.559Z,100776.33
2022-10-17T20:26:36.978Z,100764.05
2022-10-17T20:31:41.736Z,100761.52
2022-10-17T20:36:44.185Z,100763.75
2022-10-17T20:41:46.897Z,100754.08
2022-10-17T20:47:01.188Z,100756.41
2022-10-17T20:52:06.837Z,100754.44
2022-10-17T20:57:09.209Z,100750.59
2022-10-17T21:02:12.435Z,100749.25
2022-10-17T21:07:15.188Z,100754.05
2022-10-17T21:12:26.054Z,100756.71
2022-10-17T21:17:33.926Z,100754.73
2022-10-17T21:22:36.331Z,100746.55
2022-10-17T21:27:38.784Z,100758.03
2022-10-17T21:32:55.796Z,100752.86
2022-10-17T21:37:59.103Z,100752.82
2022-10-17T21:43:01.448Z,100752.75
2022-10-17T21:48:12.829Z,100752.15
2022-10-17T21:53:15.880Z,100753.35
2022-10-17T21:58:19.340Z,100750.69
2022-10-17T22:03:21.706Z,100746.13
2022-10-17T22:08:25.672Z,100737.80
2022-10-17T22:13:28.274Z,100740.69
2022-10-17T22:18:30.868Z,100740.48
2022-10-17T22:23:34.206Z,100733.16
2022-10-17T22:28:37.113Z,100734.13
2022-10-17T22:33:39.871Z,100727.52
2022-10-17T22:38:42.254Z,100730.35
2022-10-17T22:43:44.649Z,100727.92
2022-10-17T22:48:47.214Z,100727.71
2022-10-17T22:53:49.618Z,100730.77
2022-10-17T22:58:52.236Z,100728.94
2022-10-17T23:03:54.679Z,100731.41
2022-10-17T23:08:57.077Z,100727.62
2022-10-17T23:13:59.512Z,100725.10
2022-10-17T23:19:02.051Z,100725.33
2022-10-17T23:24:04.680Z,100723.83
2022-10-17T23:29:07.180Z,100721.20
2022-10-17T23:34:09.862Z,100719.77
2022-10-17T23:39:12.621Z,100721.05
2022-10-17T23:44:15.052Z,100715.91
2022-10-17T23:49:17.422Z,100713.30
2022-10-17T23:54:19.803Z,100708.77
2022-10-17T23:59:22.316Z,100713.48
